sensor_id;sensor_type;location;lat;lon;timestamp;pressure;altitude;pressure_sealevel;temperature;humidity
5691;BME280;2870;42.680;23.364;2023-04-02T00:02:28;94231.34;;;9.48;72.22
5691;BME280;2870;42.680;23.364;2023-04-02T00:05:27;94235.75;;;9.51;70.94
5691;BME280;2870;42.680;23.364;2023-04-02T00:07:57;94231.31;;;9.31;70.73
5691;BME280;2870;42.680;23.364;2023-04-02T00:10:29;94224.53;;;9.34;70.77
5691;BME280;2870;42.680;23.364;2023-04-02T00:13:02;94235.16;;;9.36;69.85
5691;BME280;2870;42.680;23.364;2023-04-02T00:15:30;94239.03;;;9.40;69.65
5691;BME280;2870;42.680;23.364;2023-04-02T00:17:59;94236.97;;;9.41;69.94
5691;BME280;2870;42.680;23.364;2023-04-02T00:20:27;94244.00;;;9.49;69.34
5691;BME280;2870;42.680;23.364;2023-04-02T00:22:56;94250.59;;;9.44;69.38
5691;BME280;2870;42.680;23.364;2023-04-02T00:25:26;94240.38;;;9.39;68.24
5691;BME280;2870;42.680;23.364;2023-04-02T00:27:53;94246.66;;;9.47;69.23
5691;BME280;2870;42.680;23.364;2023-04-02T00:30:20;94229.66;;;9.45;70.04
5691;BME280;2870;42.680;23.364;2023-04-02T00:32:47;94230.00;;;9.49;69.81
5691;BME280;2870;42.680;23.364;2023-04-02T00:35:19;94233.28;;;9.38;68.36
5691;BME280;2870;42.680;23.364;2023-04-02T00:37:48;94223.09;;;9.50;67.93
5691;BME280;2870;42.680;23.364;2023-04-02T00:40:19;94222.44;;;9.42;68.81
5691;BME280;2870;42.680;23.364;2023-04-02T00:42:48;94227.56;;;9.53;67.80
5691;BME280;2870;42.680;23.364;2023-04-02T00:45:21;94236.00;;;9.03;71.68
5691;BME280;2870;42.680;23.364;2023-04-02T00:47:49;94232.38;;;8.61;75.47
5691;BME280;2870;42.680;23.364;2023-04-02T00:50:22;94228.38;;;8.46;76.99
5691;BME280;2870;42.680;23.364;2023-04-02T00:52:53;94226.22;;;8.22;79.02
5691;BME280;2870;42.680;23.364;2023-04-02T00:55:24;94225.16;;;8.10;80.66
5691;BME280;2870;42.680;23.364;2023-04-02T00:57:59;94236.00;;;7.98;80.08
5691;BME280;2870;42.680;23.364;2023-04-02T01:00:29;94230.09;;;8.34;78.35
5691;BME280;2870;42.680;23.364;2023-04-02T01:03:28;94230.97;;;8.04;79.55
5691;BME280;2870;42.680;23.364;2023-04-02T01:06:02;94234.16;;;7.93;80.86
5691;BME280;2870;42.680;23.364;2023-04-02T01:09:03;94239.63;;;7.83;81.17
5691;BME280;2870;42.680;23.364;2023-04-02T01:11:53;94241.56;;;7.42;83.30
5691;BME280;2870;42.680;23.364;2023-04-02T01:14:36;94241.16;;;7.54;82.75
5691;BME280;2870;42.680;23.364;2023-04-02T01:17:16;94237.66;;;7.30;84.20
5691;BME280;2870;42.680;23.364;2023-04-02T01:20:13;94239.53;;;7.12;85.58
5691;BME280;2870;42.680;23.364;2023-04-02T01:22:51;94251.63;;;7.00;85.82
5691;BME280;2870;42.680;23.364;2023-04-02T01:25:24;94231.00;;;6.87;86.63
5691;BME280;2870;42.680;23.364;2023-04-02T01:27:56;94222.81;;;6.74;87.28
5691;BME280;2870;42.680;23.364;2023-04-02T01:30:30;94250.34;;;7.16;87.35
5691;BME280;2870;42.680;23.364;2023-04-02T01:32:58;94259.25;;;7.22;86.67
5691;BME280;2870;42.680;23.364;2023-04-02T01:35:28;94251.28;;;7.26;86.73
5691;BME280;2870;42.680;23.364;2023-04-02T01:38:01;94252.75;;;7.12;86.57
5691;BME280;2870;42.680;23.364;2023-04-02T01:40:34;94250.88;;;7.37;86.90
5691;BME280;2870;42.680;23.364;2023-04-02T01:43:11;94248.06;;;7.53;85.65
5691;BME280;2870;42.680;23.364;2023-04-02T01:45:43;94251.59;;;7.46;86.07
5691;BME280;2870;42.680;23.364;2023-04-02T01:48:13;94250.66;;;7.43;86.40
5691;BME280;2870;42.680;23.364;2023-04-02T01:50:42;94246.41;;;7.50;85.68
5691;BME280;2870;42.680;23.364;2023-04-02T01:53:12;94241.38;;;7.40;84.55
5691;BME280;2870;42.680;23.364;2023-04-02T01:55:43;94244.00;;;7.38;85.58
5691;BME280;2870;42.680;23.364;2023-04-02T01:58:12;94236.72;;;7.43;86.17
5691;BME280;2870;42.680;23.364;2023-04-02T02:00:44;94240.06;;;7.41;85.83
5691;BME280;2870;42.680;23.364;2023-04-02T02:03:13;94242.09;;;7.49;85.99
5691;BME280;2870;42.680;23.364;2023-04-02T02:05:42;94236.91;;;7.45;86.04
5691;BME280;2870;42.680;23.364;2023-04-02T02:08:22;94238.22;;;7.44;86.90
5691;BME280;2870;42.680;23.364;2023-04-02T02:10:51;94227.03;;;7.52;86.02
5691;BME280;2870;42.680;23.364;2023-04-02T02:13:18;94243.59;;;7.50;86.75
5691;BME280;2870;42.680;23.364;2023-04-02T02:15:48;94197.31;;;7.31;86.24
5691;BME280;2870;42.680;23.364;2023-04-02T02:18:19;94234.63;;;7.59;86.27
5691;BME280;2870;42.680;23.364;2023-04-02T02:20:47;94234.81;;;7.68;85.77
5691;BME280;2870;42.680;23.364;2023-04-02T02:23:15;94240.34;;;7.84;84.84
5691;BME280;2870;42.680;23.364;2023-04-02T02:25:43;94246.84;;;7.86;83.25
5691;BME280;2870;42.680;23.364;2023-04-02T02:28:14;94251.94;;;7.65;83.46
5691;BME280;2870;42.680;23.364;2023-04-02T02:30:44;94247.69;;;7.56;84.05
5691;BME280;2870;42.680;23.364;2023-04-02T02:33:16;94247.63;;;7.79;84.06
5691;BME280;2870;42.680;23.364;2023-04-02T02:35:49;94249.13;;;7.65;84.78
5691;BME280;2870;42.680;23.364;2023-04-02T02:38:26;94249.19;;;7.42;84.29
5691;BME280;2870;42.680;23.364;2023-04-02T02:40:58;94246.22;;;7.25;84.92
5691;BME280;2870;42.680;23.364;2023-04-02T02:43:27;94237.88;;;7.17;86.01
5691;BME280;2870;42.680;23.364;2023-04-02T02:45:54;94249.22;;;7.11;86.49
5691;BME280;2870;42.680;23.364;2023-04-02T02:48:35;94247.00;;;6.87;87.80
5691;BME280;2870;42.680;23.364;2023-04-02T02:51:06;94241.41;;;6.79;88.11
5691;BME280;2870;42.680;23.364;2023-04-02T02:53:44;94239.19;;;6.93;88.29
5691;BME280;2870;42.680;23.364;2023-04-02T02:56:12;94251.06;;;7.01;88.30
5691;BME280;2870;42.680;23.364;2023-04-02T02:58:39;94248.47;;;7.34;88.91
5691;BME280;2870;42.680;23.364;2023-04-02T03:01:06;94250.50;;;7.33;87.68
5691;BME280;2870;42.680;23.364;2023-04-02T03:03:35;94249.78;;;7.33;87.49
5691;BME280;2870;42.680;23.364;2023-04-02T03:06:03;94248.63;;;7.36;87.18
5691;BME280;2870;42.680;23.364;2023-04-02T03:08:33;94243.84;;;7.21;86.79
5691;BME280;2870;42.680;23.364;2023-04-02T03:11:09;94248.66;;;7.43;87.16
5691;BME280;2870;42.680;23.364;2023-04-02T03:13:38;94246.97;;;7.33;86.91
5691;BME280;2870;42.680;23.364;2023-04-02T03:16:10;94243.44;;;7.17;86.88
5691;BME280;2870;42.680;23.364;2023-04-02T03:18:47;94251.44;;;7.28;87.66
5691;BME280;2870;42.680;23.364;2023-04-02T03:21:23;94257.41;;;7.17;86.51
5691;BME280;2870;42.680;23.364;2023-04-02T03:23:54;94251.66;;;6.92;87.20
5691;BME280;2870;42.680;23.364;2023-04-02T03:26:26;94259.63;;;7.11;88.47
5691;BME280;2870;42.680;23.364;2023-04-02T03:28:59;94273.03;;;7.05;86.97
5691;BME280;2870;42.680;23.364;2023-04-02T03:31:31;94267.81;;;6.94;87.47
5691;BME280;2870;42.680;23.364;2023-04-02T03:34:04;94266.31;;;6.93;87.79
5691;BME280;2870;42.680;23.364;2023-04-02T03:36:39;94266.13;;;6.83;89.52
5691;BME280;2870;42.680;23.364;2023-04-02T03:39:14;94263.31;;;6.68;90.05
5691;BME280;2870;42.680;23.364;2023-04-02T03:41:44;94261.47;;;6.78;90.14
5691;BME280;2870;42.680;23.364;2023-04-02T03:44:20;94258.69;;;6.78;90.65
5691;BME280;2870;42.680;23.364;2023-04-02T03:46:51;94262.78;;;6.77;90.07
5691;BME280;2870;42.680;23.364;2023-04-02T03:49:28;94261.25;;;6.68;89.92
5691;BME280;2870;42.680;23.364;2023-04-02T03:52:01;94272.25;;;6.74;91.37
5691;BME280;2870;42.680;23.364;2023-04-02T03:54:31;94272.97;;;6.67;91.81
5691;BME280;2870;42.680;23.364;2023-04-02T03:56:58;94262.69;;;6.46;91.78
5691;BME280;2870;42.680;23.364;2023-04-02T03:59:31;94267.19;;;6.57;91.40
5691;BME280;2870;42.680;23.364;2023-04-02T04:02:05;94263.66;;;6.49;92.03
5691;BME280;2870;42.680;23.364;2023-04-02T04:04:39;94258.59;;;6.40;91.39
5691;BME280;2870;42.680;23.364;2023-04-02T04:07:13;94266.09;;;6.60;90.57
5691;BME280;2870;42.680;23.364;2023-04-02T04:09:46;94281.19;;;7.03;90.56
5691;BME280;2870;42.680;23.364;2023-04-02T04:12:23;94280.28;;;6.93;90.09
5691;BME280;2870;42.680;23.364;2023-04-02T04:14:55;94278.38;;;6.72;90.91
5691;BME280;2870;42.680;23.364;2023-04-02T04:17:25;94286.72;;;6.64;90.71
5691;BME280;2870;42.680;23.364;2023-04-02T04:20:02;94278.50;;;6.51;91.39
5691;BME280;2870;42.680;23.364;2023-04-02T04:22:34;94281.69;;;6.55;90.86
5691;BME280;2870;42.680;23.364;2023-04-02T04:25:04;94292.88;;;6.71;90.57
5691;BME280;2870;42.680;23.364;2023-04-02T04:27:37;94293.22;;;6.75;90.61
5691;BME280;2870;42.680;23.364;2023-04-02T04:30:15;94300.09;;;6.74;89.22
5691;BME280;2870;42.680;23.364;2023-04-02T04:32:45;94300.09;;;6.66;89.64
5691;BME280;2870;42.680;23.364;2023-04-02T04:35:19;94294.47;;;6.51;89.79
5691;BME280;2870;42.680;23.364;2023-04-02T04:37:49;94292.25;;;6.49;90.50
5691;BME280;2870;42.680;23.364;2023-04-02T04:40:25;94297.06;;;6.41;91.21
5691;BME280;2870;42.680;23.364;2023-04-02T04:42:56;94294.25;;;6.33;91.06
5691;BME280;2870;42.680;23.364;2023-04-02T04:45:35;94306.41;;;6.59;91.64
5691;BME280;2870;42.680;23.364;2023-04-02T04:48:06;94297.16;;;6.79;90.08
5691;BME280;2870;42.680;23.364;2023-04-02T04:50:37;94311.25;;;6.74;89.44
5691;BME280;2870;42.680;23.364;2023-04-02T04:53:07;94303.22;;;6.55;91.02
5691;BME280;2870;42.680;23.364;2023-04-02T04:55:42;94300.84;;;6.59;91.17
5691;BME280;2870;42.680;23.364;2023-04-02T04:58:17;94301.59;;;6.67;90.18
5691;BME280;2870;42.680;23.364;2023-04-02T05:00:54;94311.28;;;6.89;90.66
5691;BME280;2870;42.680;23.364;2023-04-02T05:03:28;94318.91;;;6.96;90.32
5691;BME280;2870;42.680;23.364;2023-04-02T05:06:03;94312.78;;;6.98;90.57
5691;BME280;2870;42.680;23.364;2023-04-02T05:08:35;94311.69;;;7.01;90.27
5691;BME280;2870;42.680;23.364;2023-04-02T05:11:07;94322.09;;;7.08;90.13
5691;BME280;2870;42.680;23.364;2023-04-02T05:13:39;94310.94;;;7.23;89.45
5691;BME280;2870;42.680;23.364;2023-04-02T05:16:12;94320.59;;;7.14;88.88
5691;BME280;2870;42.680;23.364;2023-04-02T05:18:43;94317.25;;;7.24;88.85
5691;BME280;2870;42.680;23.364;2023-04-02T05:21:18;94306.47;;;7.51;87.15
5691;BME280;2870;42.680;23.364;2023-04-02T05:23:49;94325.44;;;7.60;86.28
5691;BME280;2870;42.680;23.364;2023-04-02T05:26:20;94322.66;;;7.67;86.00
5691;BME280;2870;42.680;23.364;2023-04-02T05:28:53;94324.50;;;7.57;85.95
5691;BME280;2870;42.680;23.364;2023-04-02T05:31:24;94324.13;;;7.68;84.23
5691;BME280;2870;42.680;23.364;2023-04-02T05:33:53;94320.94;;;7.87;82.77
5691;BME280;2870;42.680;23.364;2023-04-02T05:36:23;94325.19;;;7.88;82.83
5691;BME280;2870;42.680;23.364;2023-04-02T05:38:51;94331.19;;;7.69;82.36
5691;BME280;2870;42.680;23.364;2023-04-02T05:41:22;94326.72;;;7.82;82.12
5691;BME280;2870;42.680;23.364;2023-04-02T05:43:57;94337.22;;;8.29;83.53
5691;BME280;2870;42.680;23.364;2023-04-02T05:46:29;94330.91;;;8.21;81.05
5691;BME280;2870;42.680;23.364;2023-04-02T05:48:59;94332.38;;;8.37;81.91
5691;BME280;2870;42.680;23.364;2023-04-02T05:51:34;94335.28;;;8.55;80.03
5691;BME280;2870;42.680;23.364;2023-04-02T05:54:04;94343.91;;;8.41;78.69
5691;BME280;2870;42.680;23.364;2023-04-02T05:56:35;94340.91;;;8.39;79.44
5691;BME280;2870;42.680;23.364;2023-04-02T05:59:06;94345.88;;;8.64;79.61
5691;BME280;2870;42.680;23.364;2023-04-02T06:01:39;94342.38;;;8.88;80.97
5691;BME280;2870;42.680;23.364;2023-04-02T06:04:16;94348.47;;;8.62;77.53
5691;BME280;2870;42.680;23.364;2023-04-02T06:06:53;94356.00;;;8.92;76.63
5691;BME280;2870;42.680;23.364;2023-04-02T06:09:29;94349.59;;;8.99;77.43
5691;BME280;2870;42.680;23.364;2023-04-02T06:12:06;94342.38;;;8.88;77.59
5691;BME280;2870;42.680;23.364;2023-04-02T06:14:36;94353.84;;;8.75;76.79
5691;BME280;2870;42.680;23.364;2023-04-02T06:17:03;94351.44;;;9.04;75.83
5691;BME280;2870;42.680;23.364;2023-04-02T06:19:36;94356.44;;;9.38;73.41
5691;BME280;2870;42.680;23.364;2023-04-02T06:22:16;94352.72;;;9.61;72.82
5691;BME280;2870;42.680;23.364;2023-04-02T06:24:46;94363.53;;;10.06;71.77
5691;BME280;2870;42.680;23.364;2023-04-02T06:27:17;94363.28;;;10.12;69.95
5691;BME280;2870;42.680;23.364;2023-04-02T06:29:48;94360.84;;;9.91;70.38
5691;BME280;2870;42.680;23.364;2023-04-02T06:32:19;94357.84;;;9.47;72.12
5691;BME280;2870;42.680;23.364;2023-04-02T06:34:49;94363.34;;;9.87;71.96
5691;BME280;2870;42.680;23.364;2023-04-02T06:37:23;94359.44;;;10.25;70.21
5691;BME280;2870;42.680;23.364;2023-04-02T06:39:52;94356.94;;;10.64;68.92
5691;BME280;2870;42.680;23.364;2023-04-02T06:42:21;94360.09;;;10.50;69.51
5691;BME280;2870;42.680;23.364;2023-04-02T06:44:50;94356.63;;;11.04;67.77
5691;BME280;2870;42.680;23.364;2023-04-02T06:47:23;94358.50;;;11.19;67.57
5691;BME280;2870;42.680;23.364;2023-04-02T06:49:57;94339.31;;;11.61;64.97
5691;BME280;2870;42.680;23.364;2023-04-02T06:52:30;94369.31;;;11.96;64.54
5691;BME280;2870;42.680;23.364;2023-04-02T06:54:59;94365.53;;;12.30;62.09
5691;BME280;2870;42.680;23.364;2023-04-02T06:57:30;94367.94;;;12.62;62.87
5691;BME280;2870;42.680;23.364;2023-04-02T07:00:00;94365.97;;;13.04;60.67
5691;BME280;2870;42.680;23.364;2023-04-02T07:02:30;94373.34;;;13.78;58.11
5691;BME280;2870;42.680;23.364;2023-04-02T07:05:01;94375.59;;;13.30;59.40
5691;BME280;2870;42.680;23.364;2023-04-02T07:07:31;94384.50;;;12.97;59.59
5691;BME280;2870;42.680;23.364;2023-04-02T07:09:58;94383.22;;;13.58;57.66
5691;BME280;2870;42.680;23.364;2023-04-02T07:12:25;94391.75;;;13.79;59.08
5691;BME280;2870;42.680;23.364;2023-04-02T07:14:52;94378.28;;;14.30;57.74
5691;BME280;2870;42.680;23.364;2023-04-02T07:17:19;94377.22;;;14.04;56.99
5691;BME280;2870;42.680;23.364;2023-04-02T07:19:46;94381.91;;;14.43;55.75
5691;BME280;2870;42.680;23.364;2023-04-02T07:22:15;94384.53;;;14.93;53.52
5691;BME280;2870;42.680;23.364;2023-04-02T07:24:44;94381.16;;;15.51;55.73
5691;BME280;2870;42.680;23.364;2023-04-02T07:27:12;94385.66;;;15.33;55.51
5691;BME280;2870;42.680;23.364;2023-04-02T07:29:39;94390.03;;;15.24;53.48
5691;BME280;2870;42.680;23.364;2023-04-02T07:32:08;94393.25;;;16.22;51.58
5691;BME280;2870;42.680;23.364;2023-04-02T07:34:36;94393.97;;;16.58;48.96
5691;BME280;2870;42.680;23.364;2023-04-02T07:37:03;94395.69;;;17.37;49.00
5691;BME280;2870;42.680;23.364;2023-04-02T07:39:30;94400.69;;;17.76;47.05
5691;BME280;2870;42.680;23.364;2023-04-02T07:42:00;94403.69;;;18.19;44.61
5691;BME280;2870;42.680;23.364;2023-04-02T07:44:27;94407.88;;;17.91;48.85
5691;BME280;2870;42.680;23.364;2023-04-02T07:46:54;94402.88;;;18.17;46.16
5691;BME280;2870;42.680;23.364;2023-04-02T07:49:21;94403.41;;;19.69;44.03
5691;BME280;2870;42.680;23.364;2023-04-02T07:51:48;94413.06;;;19.04;44.59
5691;BME280;2870;42.680;23.364;2023-04-02T07:54:16;94393.97;;;20.11;40.90
5691;BME280;2870;42.680;23.364;2023-04-02T07:56:43;94389.72;;;18.37;41.77
5691;BME280;2870;42.680;23.364;2023-04-02T07:59:11;94399.41;;;18.87;41.58
5691;BME280;2870;42.680;23.364;2023-04-02T08:01:38;94393.69;;;20.05;39.75
5691;BME280;2870;42.680;23.364;2023-04-02T08:04:15;94398.91;;;20.74;39.53
5691;BME280;2870;42.680;23.364;2023-04-02T08:06:43;94397.00;;;20.00;37.32
5691;BME280;2870;42.680;23.364;2023-04-02T08:09:09;94399.56;;;19.48;39.21
5691;BME280;2870;42.680;23.364;2023-04-02T08:11:36;94408.47;;;19.86;41.63
5691;BME280;2870;42.680;23.364;2023-04-02T08:14:03;94394.13;;;19.84;39.04
5691;BME280;2870;42.680;23.364;2023-04-02T08:16:47;94397.84;;;20.34;39.50
5691;BME280;2870;42.680;23.364;2023-04-02T08:19:14;94395.25;;;19.47;39.06
5691;BME280;2870;42.680;23.364;2023-04-02T08:21:41;94395.69;;;19.71;40.26
5691;BME280;2870;42.680;23.364;2023-04-02T08:24:08;94405.91;;;20.08;38.31
5691;BME280;2870;42.680;23.364;2023-04-02T08:26:35;94397.81;;;20.02;37.15
5691;BME280;2870;42.680;23.364;2023-04-02T08:29:02;94405.69;;;19.43;38.26
5691;BME280;2870;42.680;23.364;2023-04-02T08:31:29;94403.69;;;19.75;37.81
5691;BME280;2870;42.680;23.364;2023-04-02T08:33:57;94401.63;;;19.62;36.76
5691;BME280;2870;42.680;23.364;2023-04-02T08:36:28;94395.84;;;19.59;41.34
5691;BME280;2870;42.680;23.364;2023-04-02T08:38:56;94401.97;;;20.31;39.19
5691;BME280;2870;42.680;23.364;2023-04-02T08:41:25;94408.59;;;21.52;36.89
5691;BME280;2870;42.680;23.364;2023-04-02T08:44:06;94402.97;;;19.90;38.26
5691;BME280;2870;42.680;23.364;2023-04-02T08:46:40;94409.78;;;20.96;38.69
5691;BME280;2870;42.680;23.364;2023-04-02T08:49:13;94404.81;;;20.62;36.99
5691;BME280;2870;42.680;23.364;2023-04-02T08:51:43;94409.75;;;21.11;38.49
5691;BME280;2870;42.680;23.364;2023-04-02T08:54:20;94404.81;;;19.24;38.29
5691;BME280;2870;42.680;23.364;2023-04-02T08:56:54;94404.94;;;19.72;38.70
5691;BME280;2870;42.680;23.364;2023-04-02T08:59:30;94402.59;;;20.13;37.25
5691;BME280;2870;42.680;23.364;2023-04-02T09:02:05;94420.09;;;21.21;38.88
5691;BME280;2870;42.680;23.364;2023-04-02T09:04:40;94408.63;;;22.08;35.83
5691;BME280;2870;42.680;23.364;2023-04-02T09:07:10;94410.38;;;21.79;33.82
5691;BME280;2870;42.680;23.364;2023-04-02T09:09:38;94408.09;;;21.76;37.42
5691;BME280;2870;42.680;23.364;2023-04-02T09:12:10;94408.84;;;22.32;33.62
5691;BME280;2870;42.680;23.364;2023-04-02T09:14:43;94407.06;;;21.15;34.69
5691;BME280;2870;42.680;23.364;2023-04-02T09:17:16;94405.94;;;21.23;40.78
5691;BME280;2870;42.680;23.364;2023-04-02T09:19:51;94406.41;;;22.24;32.35
5691;BME280;2870;42.680;23.364;2023-04-02T09:22:20;94399.50;;;21.93;35.30
5691;BME280;2870;42.680;23.364;2023-04-02T09:24:51;94405.13;;;22.47;32.61
5691;BME280;2870;42.680;23.364;2023-04-02T09:27:20;94395.06;;;20.68;36.16
5691;BME280;2870;42.680;23.364;2023-04-02T09:29:48;94396.22;;;19.09;37.88
5691;BME280;2870;42.680;23.364;2023-04-02T09:32:24;94403.34;;;19.10;38.33
5691;BME280;2870;42.680;23.364;2023-04-02T09:35:12;94401.22;;;18.39;39.12
5691;BME280;2870;42.680;23.364;2023-04-02T09:37:40;94398.88;;;18.22;41.25
5691;BME280;2870;42.680;23.364;2023-04-02T09:40:15;94387.91;;;18.02;40.31
5691;BME280;2870;42.680;23.364;2023-04-02T09:42:43;94381.41;;;18.14;41.65
5691;BME280;2870;42.680;23.364;2023-04-02T09:45:12;94384.97;;;18.00;40.12
5691;BME280;2870;42.680;23.364;2023-04-02T09:47:40;94390.56;;;17.98;41.31
5691;BME280;2870;42.680;23.364;2023-04-02T09:50:22;94386.75;;;17.68;42.22
5691;BME280;2870;42.680;23.364;2023-04-02T09:52:51;94366.91;;;18.35;41.67
5691;BME280;2870;42.680;23.364;2023-04-02T09:55:20;94382.91;;;17.36;41.44
5691;BME280;2870;42.680;23.364;2023-04-02T09:57:49;94368.47;;;17.58;42.62
5691;BME280;2870;42.680;23.364;2023-04-02T10:00:20;94377.00;;;16.58;42.40
5691;BME280;2870;42.680;23.364;2023-04-02T10:03:00;94375.34;;;17.15;43.75
5691;BME280;2870;42.680;23.364;2023-04-02T10:05:29;94373.75;;;17.38;41.90
5691;BME280;2870;42.680;23.364;2023-04-02T10:08:06;94342.84;;;17.56;42.31
5691;BME280;2870;42.680;23.364;2023-04-02T10:10:36;94379.81;;;17.32;43.44
5691;BME280;2870;42.680;23.364;2023-04-02T10:13:07;94374.25;;;17.34;41.29
5691;BME280;2870;42.680;23.364;2023-04-02T10:15:39;94374.81;;;17.70;41.61
5691;BME280;2870;42.680;23.364;2023-04-02T10:18:13;94367.53;;;17.53;41.57
5691;BME280;2870;42.680;23.364;2023-04-02T10:20:44;94364.59;;;18.45;41.47
5691;BME280;2870;42.680;23.364;2023-04-02T10:23:14;94367.09;;;18.80;40.00
5691;BME280;2870;42.680;23.364;2023-04-02T10:25:48;94352.72;;;18.08;42.05
5691;BME280;2870;42.680;23.364;2023-04-02T10:28:26;94366.47;;;18.54;41.27
5691;BME280;2870;42.680;23.364;2023-04-02T10:31:02;94352.63;;;18.06;39.33
5691;BME280;2870;42.680;23.364;2023-04-02T10:33:36;94363.34;;;17.03;40.66
5691;BME280;2870;42.680;23.364;2023-04-02T10:36:08;94359.50;;;16.50;41.89
5691;BME280;2870;42.680;23.364;2023-04-02T10:38:42;94359.31;;;16.22;43.05
5691;BME280;2870;42.680;23.364;2023-04-02T10:41:19;94363.75;;;16.25;43.29
5691;BME280;2870;42.680;23.364;2023-04-02T10:44:12;94366.78;;;16.53;45.35
5691;BME280;2870;42.680;23.364;2023-04-02T10:46:44;94363.94;;;16.53;43.50
5691;BME280;2870;42.680;23.364;2023-04-02T10:49:20;94364.19;;;17.31;43.08
5691;BME280;2870;42.680;23.364;2023-04-02T10:51:55;94351.97;;;17.93;40.88
5691;BME280;2870;42.680;23.364;2023-04-02T10:54:31;94353.81;;;17.75;40.97
5691;BME280;2870;42.680;23.364;2023-04-02T10:57:06;94357.38;;;17.11;41.22
5691;BME280;2870;42.680;23.364;2023-04-02T10:59:39;94361.53;;;17.61;41.05
5691;BME280;2870;42.680;23.364;2023-04-02T11:02:24;94325.81;;;17.56;42.17
5691;BME280;2870;42.680;23.364;2023-04-02T11:04:57;94348.28;;;17.91;40.89
5691;BME280;2870;42.680;23.364;2023-04-02T11:07:30;94348.06;;;17.87;41.94
5691;BME280;2870;42.680;23.364;2023-04-02T11:09:59;94350.16;;;17.72;43.20
5691;BME280;2870;42.680;23.364;2023-04-02T11:12:36;94349.91;;;17.68;40.22
5691;BME280;2870;42.680;23.364;2023-04-02T11:15:13;94350.56;;;17.81;40.61
5691;BME280;2870;42.680;23.364;2023-04-02T11:17:42;94346.09;;;18.17;40.07
5691;BME280;2870;42.680;23.364;2023-04-02T11:20:41;94358.28;;;18.06;41.73
5691;BME280;2870;42.680;23.364;2023-04-02T11:23:11;94345.16;;;18.12;39.29
5691;BME280;2870;42.680;23.364;2023-04-02T11:25:39;94339.56;;;18.14;38.20
5691;BME280;2870;42.680;23.364;2023-04-02T11:28:23;94335.16;;;18.25;40.74
5691;BME280;2870;42.680;23.364;2023-04-02T11:30:52;94328.13;;;18.12;39.43
5691;BME280;2870;42.680;23.364;2023-04-02T11:33:38;94340.00;;;17.56;39.49
5691;BME280;2870;42.680;23.364;2023-04-02T11:39:09;94331.66;;;17.32;38.99
5691;BME280;2870;42.680;23.364;2023-04-02T11:42:04;94325.69;;;18.07;39.84
5691;BME280;2870;42.680;23.364;2023-04-02T11:44:31;94329.59;;;18.13;37.46
5691;BME280;2870;42.680;23.364;2023-04-02T11:47:13;94321.66;;;17.06;39.81
5691;BME280;2870;42.680;23.364;2023-04-02T11:49:59;94324.59;;;17.33;40.48
5691;BME280;2870;42.680;23.364;2023-04-02T11:52:30;94310.19;;;17.55;38.75
5691;BME280;2870;42.680;23.364;2023-04-02T11:55:16;94319.44;;;17.69;38.41
5691;BME280;2870;42.680;23.364;2023-04-02T11:58:18;94325.91;;;18.24;39.58
5691;BME280;2870;42.680;23.364;2023-04-02T12:04:01;94317.94;;;17.93;39.37
5691;BME280;2870;42.680;23.364;2023-04-02T12:06:45;94324.13;;;17.90;39.52
5691;BME280;2870;42.680;23.364;2023-04-02T12:09:19;94310.88;;;17.41;39.01
5691;BME280;2870;42.680;23.364;2023-04-02T12:11:49;94322.16;;;17.53;39.36
5691;BME280;2870;42.680;23.364;2023-04-02T12:14:41;94319.81;;;17.49;40.08
5691;BME280;2870;42.680;23.364;2023-04-02T12:17:17;94318.59;;;17.66;39.76
5691;BME280;2870;42.680;23.364;2023-04-02T12:19:48;94322.69;;;17.24;38.91
5691;BME280;2870;42.680;23.364;2023-04-02T12:22:19;94312.78;;;17.11;40.03
5691;BME280;2870;42.680;23.364;2023-04-02T12:24:48;94301.63;;;16.76;40.42
5691;BME280;2870;42.680;23.364;2023-04-02T12:27:19;94316.41;;;17.00;40.72
5691;BME280;2870;42.680;23.364;2023-04-02T12:29:48;94309.91;;;16.98;40.09
5691;BME280;2870;42.680;23.364;2023-04-02T12:32:24;94307.19;;;16.62;41.27
5691;BME280;2870;42.680;23.364;2023-04-02T12:34:52;94311.91;;;16.83;39.99
5691;BME280;2870;42.680;23.364;2023-04-02T12:37:22;94312.00;;;16.97;39.39
5691;BME280;2870;42.680;23.364;2023-04-02T12:39:55;94309.31;;;16.87;39.56
5691;BME280;2870;42.680;23.364;2023-04-02T12:42:29;94298.97;;;16.92;39.67
5691;BME280;2870;42.680;23.364;2023-04-02T12:44:56;94306.94;;;17.21;39.44
5691;BME280;2870;42.680;23.364;2023-04-02T12:47:24;94307.50;;;17.06;39.04
5691;BME280;2870;42.680;23.364;2023-04-02T12:49:52;94299.50;;;16.77;38.88
5691;BME280;2870;42.680;23.364;2023-04-02T12:52:22;94303.50;;;16.60;39.20
5691;BME280;2870;42.680;23.364;2023-04-02T12:54:55;94294.25;;;16.71;38.82
5691;BME280;2870;42.680;23.364;2023-04-02T12:57:33;94298.63;;;16.86;39.26
5691;BME280;2870;42.680;23.364;2023-04-02T13:00:02;94286.50;;;16.97;39.14
5691;BME280;2870;42.680;23.364;2023-04-02T13:02:32;94290.78;;;17.23;39.04
5691;BME280;2870;42.680;23.364;2023-04-02T13:05:08;94298.06;;;17.40;38.75
5691;BME280;2870;42.680;23.364;2023-04-02T13:07:36;94300.41;;;17.58;38.88
5691;BME280;2870;42.680;23.364;2023-04-02T13:10:17;94288.88;;;17.54;38.47
5691;BME280;2870;42.680;23.364;2023-04-02T13:12:53;94284.06;;;17.70;38.12
5691;BME280;2870;42.680;23.364;2023-04-02T13:15:22;94294.59;;;17.81;38.06
5691;BME280;2870;42.680;23.364;2023-04-02T13:18:02;94288.44;;;17.59;38.07
5691;BME280;2870;42.680;23.364;2023-04-02T13:20:31;94285.53;;;17.71;38.30
5691;BME280;2870;42.680;23.364;2023-04-02T13:23:01;94283.78;;;17.38;38.55
5691;BME280;2870;42.680;23.364;2023-04-02T13:25:30;94285.06;;;17.63;39.06
5691;BME280;2870;42.680;23.364;2023-04-02T13:27:58;94281.03;;;17.80;38.61
5691;BME280;2870;42.680;23.364;2023-04-02T13:30:26;94279.34;;;17.74;38.32
5691;BME280;2870;42.680;23.364;2023-04-02T13:32:54;94283.13;;;18.07;36.71
5691;BME280;2870;42.680;23.364;2023-04-02T13:35:21;94271.47;;;18.00;35.91
5691;BME280;2870;42.680;23.364;2023-04-02T13:37:47;94276.00;;;18.06;36.62
5691;BME280;2870;42.680;23.364;2023-04-02T13:40:16;94272.19;;;18.28;36.66
5691;BME280;2870;42.680;23.364;2023-04-02T13:42:44;94263.13;;;18.32;35.59
5691;BME280;2870;42.680;23.364;2023-04-02T13:45:23;94265.63;;;18.53;35.72
5691;BME280;2870;42.680;23.364;2023-04-02T13:47:51;94263.88;;;18.33;35.57
5691;BME280;2870;42.680;23.364;2023-04-02T13:50:20;94269.69;;;18.21;35.47